createdAt,value
2018-12-24T00:00:49.409Z,18.30
2018-12-24T00:05:56.108Z,18.30
2018-12-24T00:11:02.783Z,18.30
2018-12-24T00:16:09.394Z,18.20
2018-12-24T00:21:16.014Z,18.30
2018-12-24T00:26:22.466Z,18.30
2018-12-24T00:31:29.079Z,18.30
2018-12-24T00:36:35.655Z,18.30
2018-12-24T00:41:42.278Z,18.30
2018-12-24T00:46:48.972Z,18.40
2018-12-24T00:51:55.601Z,18.40
2018-12-24T00:57:02.264Z,18.30
2018-12-24T01:02:09.040Z,18.30
2018-12-24T01:07:15.716Z,18.30
2018-12-24T01:12:24.694Z,18.30
2018-12-24T01:17:30.762Z,18.30
2018-12-24T01:22:37.675Z,18.30
2018-12-24T01:27:44.168Z,18.40
2018-12-24T01:32:50.812Z,18.40
2018-12-24T01:37:57.396Z,18.40
2018-12-24T01:43:03.867Z,18.40
2018-12-24T01:48:10.479Z,18.30
2018-12-24T01:53:17.194Z,18.40
2018-12-24T01:58:23.727Z,18.30
2018-12-24T02:03:30.576Z,18.30
2018-12-24T02:08:37.076Z,18.30
2018-12-24T02:13:43.768Z,18.30
2018-12-24T02:18:50.254Z,18.20
2018-12-24T02:23:57.100Z,18.30
2018-12-24T02:29:03.722Z,18.30
2018-12-24T02:34:10.374Z,18.20
2018-12-24T02:39:16.965Z,18.30
2018-12-24T02:44:23.462Z,18.20
2018-12-24T02:49:30.268Z,18.30
2018-12-24T02:54:37.073Z,18.20
2018-12-24T02:59:43.739Z,18.20
2018-12-24T03:04:50.551Z,18.20
2018-12-24T03:09:57.115Z,18.20
2018-12-24T03:15:03.834Z,18.20
2018-12-24T03:20:10.453Z,18.20
2018-12-24T03:25:17.043Z,18.20
2018-12-24T03:30:23.652Z,18.20
2018-12-24T03:35:30.265Z,18.20
2018-12-24T03:40:36.992Z,18.20
2018-12-24T03:45:43.615Z,18.10
2018-12-24T03:50:50.354Z,18.10
2018-12-24T03:55:57.002Z,18.10
2018-12-24T04:01:03.686Z,18.10
2018-12-24T04:06:10.362Z,18.10
2018-12-24T04:11:16.829Z,18.10
2018-12-24T04:16:23.329Z,18.10
2018-12-24T04:21:29.956Z,18.10
2018-12-24T04:26:36.509Z,18.10
2018-12-24T04:31:43.339Z,18.10
2018-12-24T04:36:50.007Z,18.10
2018-12-24T04:41:56.631Z,18.10
2018-12-24T04:47:03.227Z,18.10
2018-12-24T04:52:10.020Z,18.10
2018-12-24T04:57:16.669Z,18.20
2018-12-24T05:02:23.219Z,18.20
2018-12-24T05:07:29.783Z,18.10
2018-12-24T05:12:36.267Z,18.10
2018-12-24T05:17:42.847Z,18.10
2018-12-24T05:22:49.355Z,18.20
2018-12-24T05:27:55.990Z,18.20
2018-12-24T05:33:02.763Z,18.10
2018-12-24T05:38:09.474Z,18.20
2018-12-24T05:43:16.037Z,18.20
2018-12-24T05:48:22.973Z,18.20
2018-12-24T05:53:29.703Z,18.10
2018-12-24T05:58:36.287Z,18.10
2018-12-24T06:03:42.771Z,18.10
2018-12-24T06:08:49.524Z,18.10
2018-12-24T06:13:58.120Z,18.20
2018-12-24T06:19:04.456Z,18.20
2018-12-24T06:24:11.231Z,18.20
2018-12-24T06:29:17.731Z,18.20
2018-12-24T06:34:24.618Z,18.10
2018-12-24T06:39:31.043Z,18.10
2018-12-24T06:44:37.883Z,18.10
2018-12-24T06:49:44.904Z,18.10
2018-12-24T06:54:51.642Z,18.10
2018-12-24T06:59:58.248Z,18.10
2018-12-24T07:05:04.917Z,18.10
2018-12-24T07:10:11.581Z,18.10
2018-12-24T07:15:18.167Z,18.10
2018-12-24T07:20:24.763Z,18.10
2018-12-24T07:25:31.315Z,18.10
2018-12-24T07:30:38.078Z,18.10
2018-12-24T07:35:44.714Z,18.10
2018-12-24T07:41:34.249Z,18.10
2018-12-24T07:46:40.961Z,18.10
2018-12-24T07:51:47.324Z,18.10
2018-12-24T07:56:53.508Z,18.20
2018-12-24T08:01:59.815Z,18.20
2018-12-24T08:07:05.917Z,18.20
2018-12-24T08:12:12.907Z,18.20
2018-12-24T08:17:19.388Z,18.20
2018-12-24T08:22:25.820Z,18.20
2018-12-24T08:27:31.941Z,18.20
2018-12-24T08:32:38.117Z,18.20
2018-12-24T08:37:44.293Z,18.20
2018-12-24T08:42:50.308Z,18.30
2018-12-24T08:47:56.522Z,18.30
2018-12-24T08:53:03.073Z,18.30
2018-12-24T08:58:09.259Z,18.30
2018-12-24T09:03:15.370Z,18.40
2018-12-24T09:08:21.535Z,18.30
2018-12-24T09:13:27.700Z,18.40
2018-12-24T09:18:33.878Z,18.50
2018-12-24T09:23:40.064Z,18.60
2018-12-24T09:28:46.166Z,19.20
2018-12-24T09:33:52.282Z,19.60
2018-12-24T09:38:58.612Z,19.50
2018-12-24T09:44:04.917Z,19.40
2018-12-24T09:49:10.952Z,19.30
2018-12-24T09:54:17.949Z,19.60
2018-12-24T09:59:24.024Z,19.70
2018-12-24T10:04:34.372Z,19.70
2018-12-24T10:09:41.819Z,19.70
2018-12-24T10:14:47.925Z,20.00
2018-12-24T10:19:54.019Z,20.30
2018-12-24T10:24:59.942Z,20.60
2018-12-24T10:30:07.118Z,20.80
2018-12-24T10:35:13.518Z,20.30
2018-12-24T10:40:19.867Z,19.90
2018-12-24T10:45:25.959Z,19.70
2018-12-24T10:50:32.570Z,19.60
2018-12-24T10:55:38.810Z,20.60
2018-12-24T11:00:44.858Z,21.90
2018-12-24T11:05:51.965Z,20.70
2018-12-24T11:10:58.161Z,20.00
2018-12-24T11:16:04.411Z,19.70
2018-12-24T11:21:10.602Z,19.50
2018-12-24T11:26:16.721Z,19.50
2018-12-24T11:31:22.897Z,19.40
2018-12-24T11:36:28.992Z,19.40
2018-12-24T11:41:35.447Z,19.40
2018-12-24T11:46:41.716Z,19.50
2018-12-24T11:51:47.785Z,19.50
2018-12-24T11:56:54.218Z,19.50
2018-12-24T12:02:00.432Z,19.50
2018-12-24T12:07:06.544Z,19.50
2018-12-24T12:12:12.861Z,19.40
2018-12-24T12:17:18.890Z,19.40
2018-12-24T12:22:24.964Z,19.40
2018-12-24T12:27:31.076Z,19.30
2018-12-24T12:32:37.201Z,19.30
2018-12-24T12:37:43.237Z,19.30
2018-12-24T12:42:49.717Z,19.20
2018-12-24T12:47:57.504Z,19.20
2018-12-24T12:53:04.785Z,19.20
2018-12-24T12:58:11.107Z,19.20
2018-12-24T13:03:17.185Z,19.10
2018-12-24T13:08:23.313Z,19.10
2018-12-24T13:13:36.736Z,19.10
2018-12-24T13:18:37.561Z,19.10
2018-12-24T13:23:43.667Z,19.10
2018-12-24T13:28:49.929Z,19.10
2018-12-24T13:33:56.314Z,19.20
2018-12-24T13:39:02.554Z,19.10
2018-12-24T13:44:08.566Z,19.10
2018-12-24T13:49:14.935Z,19.10
2018-12-24T13:54:21.093Z,19.10
2018-12-24T13:59:27.189Z,19.00
2018-12-24T14:04:33.290Z,19.00
2018-12-24T14:09:39.425Z,19.00
2018-12-24T14:14:45.693Z,19.00
2018-12-24T14:19:51.858Z,19.00
2018-12-24T14:24:57.864Z,19.00
2018-12-24T14:30:04.877Z,19.00
2018-12-24T14:35:11.077Z,19.00
2018-12-24T14:40:17.250Z,19.00
2018-12-24T14:45:23.506Z,18.90
2018-12-24T14:50:29.586Z,18.90
2018-12-24T14:55:35.617Z,19.00
2018-12-24T15:00:41.672Z,19.00
2018-12-24T15:05:47.825Z,19.00
2018-12-24T15:10:53.985Z,19.00
2018-12-24T15:16:00.075Z,19.00
2018-12-24T15:21:06.198Z,19.00
2018-12-24T15:26:12.563Z,19.00
2018-12-24T15:31:18.679Z,19.00
2018-12-24T15:36:24.770Z,18.90
2018-12-24T15:41:30.908Z,18.90
2018-12-24T15:46:42.687Z,18.90
2018-12-24T15:51:44.757Z,18.80
2018-12-24T15:56:50.968Z,18.80
2018-12-24T16:01:57.114Z,18.80
2018-12-24T16:07:03.244Z,18.80
2018-12-24T16:12:09.318Z,18.80
2018-12-24T16:17:15.468Z,18.70
2018-12-24T16:22:21.608Z,18.70
2018-12-24T16:27:27.697Z,18.70
2018-12-24T16:32:33.797Z,18.70
2018-12-24T16:37:39.872Z,18.70
2018-12-24T16:42:46.067Z,18.70
2018-12-24T16:47:52.084Z,18.70
2018-12-24T16:52:58.169Z,18.60
2018-12-24T16:58:04.267Z,18.70
2018-12-24T17:03:10.293Z,18.60
2018-12-24T17:08:16.489Z,18.60
2018-12-24T17:13:22.530Z,18.60
2018-12-24T17:18:28.634Z,18.60
2018-12-24T17:23:35.081Z,18.60
2018-12-24T17:28:41.262Z,18.60
2018-12-24T17:33:47.539Z,18.60
2018-12-24T17:38:53.650Z,18.60
2018-12-24T17:44:00.047Z,18.60
2018-12-24T17:49:06.277Z,18.60
2018-12-24T17:54:12.321Z,18.50
2018-12-24T17:59:18.370Z,18.50
2018-12-24T18:04:24.554Z,18.50
2018-12-24T18:09:30.752Z,18.50
2018-12-24T18:14:36.879Z,18.50
2018-12-24T18:19:42.917Z,18.50
2018-12-24T18:24:49.105Z,18.50
2018-12-24T18:29:55.211Z,18.50
2018-12-24T18:35:02.203Z,18.50
2018-12-24T18:40:08.351Z,18.50
2018-12-24T18:45:14.541Z,18.50
2018-12-24T18:50:20.971Z,18.50
2018-12-24T18:55:27.212Z,18.50
2018-12-24T19:00:33.630Z,18.50
2018-12-24T19:05:39.842Z,18.50
2018-12-24T19:10:46.284Z,18.50
2018-12-24T19:15:52.480Z,18.50
2018-12-24T19:20:58.595Z,18.50
2018-12-24T19:26:04.681Z,18.50
2018-12-24T19:31:10.776Z,18.50
2018-12-24T19:36:17.285Z,18.50
2018-12-24T19:41:23.553Z,18.50
2018-12-24T19:46:29.685Z,18.50
2018-12-24T19:51:35.816Z,18.50
2018-12-24T19:56:42.038Z,18.50
2018-12-24T20:01:48.159Z,18.50
2018-12-24T20:06:54.279Z,18.50
2018-12-24T20:12:03.414Z,18.50
2018-12-24T20:17:09.594Z,18.50
2018-12-24T20:22:16.048Z,18.50
2018-12-24T20:27:22.098Z,18.50
2018-12-24T20:32:28.213Z,18.50
2018-12-24T20:37:34.479Z,18.50
2018-12-24T20:42:40.813Z,18.50
2018-12-24T20:47:46.949Z,18.50
2018-12-24T20:52:53.171Z,18.50
2018-12-24T20:57:59.334Z,18.50
2018-12-24T21:03:05.430Z,18.50
2018-12-24T21:08:11.555Z,18.40
2018-12-24T21:13:17.595Z,18.50
2018-12-24T21:18:23.706Z,18.50
2018-12-24T21:23:29.811Z,18.50
2018-12-24T21:28:35.851Z,18.40
2018-12-24T21:33:42.165Z,18.40
2018-12-24T21:38:48.302Z,18.40
2018-12-24T21:43:54.618Z,18.40
2018-12-24T21:49:00.733Z,18.40
2018-12-24T21:54:06.815Z,18.40
2018-12-24T21:59:12.988Z,18.40
2018-12-24T22:04:19.063Z,18.40
2018-12-24T22:09:25.304Z,18.40
2018-12-24T22:14:31.365Z,18.40
2018-12-24T22:19:37.477Z,18.40
2018-12-24T22:24:43.678Z,18.40
2018-12-24T22:29:50.005Z,18.40
2018-12-24T22:34:56.162Z,18.40
2018-12-24T22:40:02.363Z,18.50
2018-12-24T22:45:08.587Z,18.40
2018-12-24T22:50:14.726Z,18.40
2018-12-24T22:55:20.790Z,18.40
2018-12-24T23:00:45.685Z,18.40
2018-12-24T23:05:51.867Z,18.40
2018-12-24T23:10:58.573Z,18.40
2018-12-24T23:16:04.811Z,18.40
2018-12-24T23:21:11.146Z,18.40
2018-12-24T23:26:17.339Z,18.40
2018-12-24T23:31:23.451Z,18.40
2018-12-24T23:36:29.666Z,18.40
2018-12-24T23:41:35.875Z,18.40
2018-12-24T23:46:42.026Z,18.40
2018-12-24T23:51:48.077Z,18.40
2018-12-24T23:56:54.155Z,18.40
